createdAt,value
2019-05-28T00:01:26.559Z,94.20
2019-05-28T00:04:31.596Z,94.30
2019-05-28T00:07:38.007Z,94.30
2019-05-28T00:10:42.284Z,94.30
2019-05-28T00:13:46.592Z,94.60
2019-05-28T00:16:50.970Z,94.40
2019-05-28T00:19:55.370Z,94.40
2019-05-28T00:22:59.641Z,94.10
2019-05-28T00:26:03.965Z,94.30
2019-05-28T00:29:08.306Z,94.40
2019-05-28T00:32:12.595Z,94.50
2019-05-28T00:35:17.376Z,94.50
2019-05-28T00:38:21.734Z,94.50
2019-05-28T00:41:26.072Z,94.60
2019-05-28T00:44:30.575Z,94.60
2019-05-28T00:47:34.798Z,94.60
2019-05-28T00:50:39.724Z,94.60
2019-05-28T00:53:44.406Z,94.70
2019-05-28T00:56:50.729Z,94.70
2019-05-28T00:59:55.803Z,94.90
2019-05-28T01:03:00.484Z,94.80
2019-05-28T01:06:04.832Z,94.70
2019-05-28T01:09:09.535Z,94.80
2019-05-28T01:12:13.883Z,94.70
2019-05-28T01:15:18.185Z,94.80
2019-05-28T01:18:22.444Z,94.80
2019-05-28T01:21:26.890Z,94.90
2019-05-28T01:24:31.170Z,94.90
2019-05-28T01:27:35.584Z,94.90
2019-05-28T01:30:53.768Z,95.00
2019-05-28T01:33:46.022Z,94.80
2019-05-28T01:36:50.374Z,94.90
2019-05-28T01:39:55.050Z,94.90
2019-05-28T01:42:59.421Z,94.90
2019-05-28T01:46:03.725Z,94.90
2019-05-28T01:49:08.047Z,94.70
2019-05-28T01:52:12.387Z,94.70
2019-05-28T01:55:16.954Z,94.80
2019-05-28T01:58:21.334Z,95.00
2019-05-28T02:01:25.669Z,95.00
2019-05-28T02:04:29.903Z,95.00
2019-05-28T02:07:34.166Z,95.10
2019-05-28T02:10:38.692Z,95.20
2019-05-28T02:13:43.040Z,95.30
2019-05-28T02:16:51.660Z,95.50
2019-05-28T02:19:53.365Z,95.50
2019-05-28T02:22:57.760Z,95.50
2019-05-28T02:26:02.139Z,95.70
2019-05-28T02:29:06.446Z,95.70
2019-05-28T02:32:10.789Z,96.00
2019-05-28T02:35:15.711Z,96.00
2019-05-28T02:38:20.039Z,95.90
2019-05-28T02:41:24.372Z,96.00
2019-05-28T02:44:28.575Z,96.00
2019-05-28T02:47:32.872Z,96.00
2019-05-28T02:50:59.436Z,95.90
2019-05-28T02:54:04.552Z,95.90
2019-05-28T02:57:10.491Z,95.90
2019-05-28T03:00:15.201Z,95.90
2019-05-28T03:03:22.666Z,95.90
2019-05-28T03:06:28.995Z,95.80
2019-05-28T03:09:35.115Z,95.90
2019-05-28T03:12:40.195Z,95.90
2019-05-28T03:15:47.668Z,95.90
2019-05-28T03:18:53.807Z,95.90
2019-05-28T03:22:01.642Z,95.80
2019-05-28T03:25:07.033Z,95.80
2019-05-28T03:28:11.516Z,95.90
2019-05-28T03:31:15.938Z,95.90
2019-05-28T03:34:20.339Z,96.00
2019-05-28T03:37:26.368Z,96.00
2019-05-28T03:40:49.305Z,96.00
2019-05-28T03:43:53.990Z,96.00
2019-05-28T03:46:58.349Z,95.90
2019-05-28T03:50:02.694Z,96.00
2019-05-28T03:53:07.088Z,96.00
2019-05-28T03:56:11.402Z,96.30
2019-05-28T03:59:15.763Z,96.00
2019-05-28T04:02:23.523Z,96.10
2019-05-28T04:05:26.196Z,95.90
2019-05-28T04:08:30.767Z,95.90
2019-05-28T04:11:44.361Z,96.00
2019-05-28T04:14:41.906Z,96.20
2019-05-28T04:17:46.113Z,96.40
2019-05-28T04:20:50.541Z,96.40
2019-05-28T04:23:54.912Z,96.30
2019-05-28T04:26:59.301Z,96.40
2019-05-28T04:30:03.732Z,96.40
2019-05-28T04:33:08.127Z,96.30
2019-05-28T04:36:12.480Z,96.40
2019-05-28T04:39:16.794Z,96.50
2019-05-28T04:42:21.128Z,96.40
2019-05-28T04:45:25.460Z,96.30
2019-05-28T04:48:29.839Z,96.30
2019-05-28T04:51:34.232Z,96.20
2019-05-28T04:54:38.512Z,96.20
2019-05-28T04:57:42.919Z,96.30
2019-05-28T05:00:47.319Z,96.40
2019-05-28T05:03:52.026Z,96.50
2019-05-28T05:06:56.427Z,96.50
2019-05-28T05:10:00.872Z,96.50
2019-05-28T05:13:05.309Z,96.50
2019-05-28T05:16:10.107Z,96.60
2019-05-28T05:19:14.677Z,96.60
2019-05-28T05:22:19.051Z,96.30
2019-05-28T05:25:23.384Z,96.60
2019-05-28T05:28:27.824Z,96.50
2019-05-28T05:31:32.412Z,96.50
2019-05-28T05:34:36.915Z,96.60
2019-05-28T05:37:41.277Z,96.60
2019-05-28T05:40:45.735Z,96.50
2019-05-28T05:43:50.142Z,96.70
2019-05-28T05:46:56.341Z,96.60
2019-05-28T05:50:00.748Z,96.50
2019-05-28T05:53:05.260Z,96.60
2019-05-28T05:56:09.701Z,96.50
2019-05-28T05:59:14.044Z,96.50
2019-05-28T06:02:18.442Z,96.90
2019-05-28T06:05:22.835Z,96.90
2019-05-28T06:08:27.225Z,96.90
2019-05-28T06:11:31.620Z,96.80
2019-05-28T06:14:38.091Z,96.20
2019-05-28T06:17:42.085Z,96.10
2019-05-28T06:20:46.678Z,96.20
2019-05-28T06:23:52.557Z,96.20
2019-05-28T06:26:56.913Z,96.10
2019-05-28T06:30:01.346Z,96.10
2019-05-28T06:33:05.709Z,96.10
2019-05-28T06:36:10.243Z,96.10
2019-05-28T06:39:14.844Z,96.10
2019-05-28T06:42:19.624Z,96.00
2019-05-28T06:45:23.915Z,96.00
2019-05-28T06:48:28.357Z,95.90
2019-05-28T06:51:32.701Z,95.70
2019-05-28T06:54:37.021Z,95.60
2019-05-28T06:57:41.307Z,95.10
2019-05-28T07:00:45.745Z,95.10
2019-05-28T07:03:50.150Z,95.20
2019-05-28T07:06:54.592Z,95.10
2019-05-28T07:09:59.081Z,95.10
2019-05-28T07:13:03.619Z,95.10
2019-05-28T07:16:08.001Z,95.50
2019-05-28T07:19:24.195Z,95.10
2019-05-28T07:22:18.676Z,95.00
2019-05-28T07:25:24.899Z,95.00
2019-05-28T07:28:29.445Z,95.40
2019-05-28T07:31:33.875Z,95.00
2019-05-28T07:34:38.199Z,94.90
2019-05-28T07:37:42.590Z,94.90
2019-05-28T07:40:46.944Z,94.80
2019-05-28T07:43:51.348Z,94.70
2019-05-28T07:46:55.716Z,94.70
2019-05-28T07:50:00.158Z,94.70
2019-05-28T07:53:04.629Z,94.50
2019-05-28T07:56:09.050Z,94.50
2019-05-28T07:59:13.399Z,94.40
2019-05-28T08:02:17.718Z,94.40
2019-05-28T08:05:22.080Z,94.30
2019-05-28T08:08:26.803Z,94.30
2019-05-28T08:11:31.156Z,94.20
2019-05-28T08:14:35.523Z,94.20
2019-05-28T08:17:39.783Z,94.20
2019-05-28T08:20:44.197Z,94.20
2019-05-28T08:23:48.577Z,94.10
2019-05-28T08:26:52.896Z,94.10
2019-05-28T08:29:57.246Z,94.20
2019-05-28T08:33:01.678Z,94.20
2019-05-28T08:36:06.023Z,94.20
2019-05-28T08:39:10.406Z,94.30
2019-05-28T08:42:14.808Z,94.40
2019-05-28T08:45:19.872Z,94.50
2019-05-28T08:48:24.319Z,94.50
2019-05-28T08:51:29.762Z,94.60
2019-05-28T08:54:34.487Z,94.70
2019-05-28T08:57:39.477Z,94.80
2019-05-28T09:00:45.629Z,94.90
2019-05-28T09:03:50.039Z,95.00
2019-05-28T09:06:54.425Z,95.20
2019-05-28T09:09:58.832Z,95.30
2019-05-28T09:13:03.197Z,95.40
2019-05-28T09:16:07.607Z,95.50
2019-05-28T09:19:12.040Z,96.80
2019-05-28T09:22:25.607Z,96.30
2019-05-28T09:25:22.979Z,96.10
2019-05-28T09:28:30.526Z,96.00
2019-05-28T09:31:33.448Z,95.90
2019-05-28T09:34:37.876Z,95.90
2019-05-28T09:37:42.227Z,96.00
2019-05-28T09:40:50.525Z,95.90
2019-05-28T09:43:52.710Z,95.70
2019-05-28T09:46:57.124Z,95.60
2019-05-28T09:50:01.415Z,95.50
2019-05-28T09:53:05.744Z,95.40
2019-05-28T09:56:10.099Z,95.20
2019-05-28T09:59:14.562Z,95.30
2019-05-28T10:02:19.032Z,94.90
2019-05-28T10:05:25.759Z,94.70
2019-05-28T10:08:30.456Z,94.60
2019-05-28T10:11:35.271Z,94.70
2019-05-28T10:14:39.693Z,94.60
2019-05-28T10:17:44.106Z,94.50
2019-05-28T10:20:48.535Z,94.60
2019-05-28T10:23:52.976Z,94.60
2019-05-28T10:26:57.743Z,94.50
2019-05-28T10:30:02.182Z,94.50
2019-05-28T10:33:06.530Z,94.40
2019-05-28T10:36:12.920Z,94.40
2019-05-28T10:39:17.284Z,94.60
2019-05-28T10:42:21.774Z,94.50
2019-05-28T10:45:26.407Z,94.40
2019-05-28T10:48:30.780Z,94.40
2019-05-28T10:51:35.005Z,94.20
2019-05-28T10:54:39.537Z,94.00
2019-05-28T10:57:43.943Z,94.00
2019-05-28T11:00:50.175Z,94.00
2019-05-28T11:03:54.485Z,93.50
2019-05-28T11:06:58.796Z,93.30
2019-05-28T11:10:03.094Z,93.40
2019-05-28T11:13:07.579Z,93.40
2019-05-28T11:16:12.104Z,93.50
2019-05-28T11:19:16.533Z,93.60
2019-05-28T11:22:20.922Z,93.30
2019-05-28T11:25:25.351Z,93.40
2019-05-28T11:28:29.815Z,93.10
2019-05-28T11:31:34.145Z,90.80
2019-05-28T11:34:38.542Z,91.70
2019-05-28T11:37:42.943Z,91.30
2019-05-28T11:40:47.285Z,91.40
2019-05-28T11:43:51.727Z,91.40
2019-05-28T11:46:56.162Z,91.30
2019-05-28T11:50:00.521Z,91.20
2019-05-28T11:53:04.916Z,91.20
2019-05-28T11:56:09.350Z,91.10
2019-05-28T11:59:13.730Z,90.80
2019-05-28T12:02:18.182Z,90.80
2019-05-28T12:05:24.364Z,90.60
2019-05-28T12:08:28.794Z,89.30
2019-05-28T12:11:33.136Z,89.70
2019-05-28T12:14:37.505Z,87.60
2019-05-28T12:17:45.045Z,88.10
2019-05-28T12:20:48.132Z,88.30
2019-05-28T12:23:52.402Z,87.10
2019-05-28T12:26:56.729Z,87.80
2019-05-28T12:30:03.404Z,88.30
2019-05-28T12:33:07.826Z,87.90
2019-05-28T12:36:12.249Z,88.60
2019-05-28T12:39:16.688Z,89.10
2019-05-28T12:42:21.081Z,89.70
2019-05-28T12:45:35.174Z,90.20
2019-05-28T12:48:32.120Z,90.30
2019-05-28T12:51:36.673Z,90.30
2019-05-28T12:54:41.068Z,90.00
2019-05-28T12:57:45.493Z,89.10
2019-05-28T13:00:50.138Z,88.40
2019-05-28T13:03:54.752Z,88.20
2019-05-28T13:06:59.171Z,88.70
2019-05-28T13:10:03.754Z,87.90
2019-05-28T13:13:08.183Z,87.20
2019-05-28T13:16:12.728Z,86.40
2019-05-28T13:19:17.225Z,85.30
2019-05-28T13:22:21.698Z,85.20
2019-05-28T13:25:26.252Z,84.80
2019-05-28T13:28:33.530Z,84.00
2019-05-28T13:31:38.103Z,83.00
2019-05-28T13:34:42.595Z,82.60
2019-05-28T13:37:46.983Z,82.10
2019-05-28T13:40:51.471Z,81.10
2019-05-28T13:43:55.798Z,80.70
2019-05-28T13:47:00.245Z,80.40
2019-05-28T13:50:05.022Z,79.70
2019-05-28T13:53:09.536Z,79.30
2019-05-28T13:56:13.906Z,77.80
2019-05-28T13:59:18.333Z,77.50
2019-05-28T14:02:22.642Z,77.20
2019-05-28T14:05:27.148Z,77.00
2019-05-28T14:08:46.054Z,76.40
2019-05-28T14:11:37.592Z,76.10
2019-05-28T14:14:43.203Z,75.30
2019-05-28T14:17:47.720Z,74.80
2019-05-28T14:20:52.147Z,74.20
2019-05-28T14:23:57.676Z,73.00
2019-05-28T14:27:02.035Z,72.80
2019-05-28T14:30:08.483Z,74.30
2019-05-28T14:33:12.962Z,73.20
2019-05-28T14:36:17.426Z,72.70
2019-05-28T14:39:21.743Z,74.00
2019-05-28T14:42:26.242Z,72.80
2019-05-28T14:45:30.688Z,72.70
2019-05-28T14:48:35.348Z,72.50
2019-05-28T14:51:39.785Z,71.90
2019-05-28T14:54:44.520Z,71.60
2019-05-28T14:57:48.948Z,71.20
2019-05-28T15:00:53.462Z,70.80
2019-05-28T15:03:58.932Z,70.60
2019-05-28T15:07:03.607Z,69.40
2019-05-28T15:10:08.916Z,70.40
2019-05-28T15:13:13.361Z,70.60
2019-05-28T15:16:17.870Z,70.50
2019-05-28T15:19:24.375Z,71.20
2019-05-28T15:22:28.845Z,71.30
2019-05-28T15:25:33.498Z,70.00
2019-05-28T15:28:37.911Z,69.60
2019-05-28T15:31:42.367Z,70.00
2019-05-28T15:34:47.038Z,63.10
2019-05-28T15:37:52.103Z,66.80
2019-05-28T15:40:56.827Z,68.20
2019-05-28T15:44:01.322Z,60.20
2019-05-28T15:47:06.354Z,60.90
2019-05-28T15:50:11.807Z,62.10
2019-05-28T15:53:16.409Z,65.50
2019-05-28T15:56:21.342Z,62.60
2019-05-28T15:59:26.269Z,65.10
2019-05-28T16:02:31.860Z,65.00
2019-05-28T16:05:36.472Z,64.60
2019-05-28T16:08:41.367Z,64.80
2019-05-28T16:11:46.131Z,64.20
2019-05-28T16:14:52.008Z,65.00
2019-05-28T16:17:56.513Z,64.00
2019-05-28T16:21:01.031Z,65.80
2019-05-28T16:24:05.601Z,68.90
2019-05-28T16:27:10.047Z,69.20
2019-05-28T16:30:15.090Z,72.30
2019-05-28T16:33:19.553Z,72.90
2019-05-28T16:36:24.664Z,72.90
2019-05-28T16:39:29.828Z,71.00
2019-05-28T16:42:35.080Z,71.10
2019-05-28T16:45:40.847Z,70.80
2019-05-28T16:48:46.150Z,70.30
2019-05-28T16:51:50.584Z,71.00
2019-05-28T16:54:55.188Z,72.00
2019-05-28T16:58:00.290Z,73.70
2019-05-28T17:01:21.746Z,77.70
2019-05-28T17:04:15.037Z,80.60
2019-05-28T17:07:19.530Z,82.80
2019-05-28T17:10:32.983Z,83.70
2019-05-28T17:13:30.378Z,84.00
2019-05-28T17:16:35.960Z,83.70
2019-05-28T17:19:44.149Z,83.90
2019-05-28T17:22:47.214Z,83.70
2019-05-28T17:25:51.767Z,83.90
2019-05-28T17:28:56.308Z,83.80
2019-05-28T17:32:00.995Z,82.40
2019-05-28T17:35:06.375Z,82.90
2019-05-28T17:38:12.778Z,82.80
2019-05-28T17:41:19.888Z,82.70
2019-05-28T17:44:23.550Z,82.50
2019-05-28T17:47:28.965Z,82.10
2019-05-28T17:50:34.712Z,81.50
2019-05-28T17:53:40.338Z,81.50
2019-05-28T17:56:44.702Z,81.50
2019-05-28T17:59:49.599Z,81.40
2019-05-28T18:02:54.305Z,81.40
2019-05-28T18:05:59.164Z,81.60
2019-05-28T18:09:05.199Z,81.90
2019-05-28T18:12:09.648Z,82.50
2019-05-28T18:15:15.069Z,82.70
2019-05-28T18:18:19.688Z,82.90
2019-05-28T18:21:24.297Z,83.30
2019-05-28T18:24:29.163Z,84.50
2019-05-28T18:27:35.538Z,84.00
2019-05-28T18:30:40.368Z,84.20
2019-05-28T18:33:45.180Z,84.60
2019-05-28T18:36:50.388Z,84.90
2019-05-28T18:39:55.450Z,85.30
2019-05-28T18:43:00.159Z,85.60
2019-05-28T18:46:06.309Z,86.20
2019-05-28T18:49:14.446Z,86.10
2019-05-28T18:52:19.115Z,86.40
2019-05-28T18:55:24.683Z,86.90
2019-05-28T18:58:35.470Z,87.00
2019-05-28T19:01:42.443Z,87.50
2019-05-28T19:04:47.873Z,87.70
2019-05-28T19:07:53.440Z,88.10
2019-05-28T19:10:59.212Z,88.40
2019-05-28T19:14:05.450Z,88.50
2019-05-28T19:17:12.390Z,89.00
2019-05-28T19:20:18.370Z,89.20
2019-05-28T19:23:23.894Z,89.40
2019-05-28T19:26:28.353Z,89.70
2019-05-28T19:29:36.239Z,90.00
2019-05-28T19:32:41.063Z,90.20
2019-05-28T19:35:47.038Z,90.50
2019-05-28T19:38:53.432Z,90.30
2019-05-28T19:41:59.071Z,90.30
2019-05-28T19:45:04.978Z,90.40
2019-05-28T19:48:10.792Z,90.50
2019-05-28T19:51:16.163Z,90.60
2019-05-28T19:54:20.608Z,90.70
2019-05-28T19:57:26.210Z,90.70
2019-05-28T20:00:30.729Z,90.70
2019-05-28T20:03:35.253Z,90.90
2019-05-28T20:06:40.981Z,90.80
2019-05-28T20:09:45.862Z,91.00
2019-05-28T20:12:50.715Z,91.00
2019-05-28T20:15:57.013Z,91.00
2019-05-28T20:19:01.790Z,91.10
2019-05-28T20:22:13.182Z,91.10
2019-05-28T20:25:17.928Z,91.30
2019-05-28T20:28:25.658Z,91.30
2019-05-28T20:31:30.205Z,91.30
2019-05-28T20:34:34.726Z,91.40
2019-05-28T20:37:39.091Z,91.40
2019-05-28T20:40:46.241Z,91.40
2019-05-28T20:43:54.756Z,91.50
2019-05-28T20:46:57.822Z,91.70
2019-05-28T20:50:04.403Z,91.60
2019-05-28T20:53:08.457Z,91.60
2019-05-28T20:56:13.135Z,91.60
2019-05-28T20:59:18.516Z,91.80
2019-05-28T21:02:22.880Z,91.70
2019-05-28T21:05:27.276Z,91.90
2019-05-28T21:08:31.639Z,91.90
2019-05-28T21:11:36.036Z,92.00
2019-05-28T21:14:40.618Z,92.00
2019-05-28T21:17:45.021Z,91.90
2019-05-28T21:20:49.445Z,92.00
2019-05-28T21:23:54.250Z,92.00
2019-05-28T21:26:58.599Z,92.10
2019-05-28T21:30:04.388Z,92.20
2019-05-28T21:33:08.758Z,92.10
2019-05-28T21:36:16.101Z,92.20
2019-05-28T21:39:20.429Z,92.30
2019-05-28T21:42:24.848Z,92.40
2019-05-28T21:45:29.217Z,92.40
2019-05-28T21:48:34.673Z,92.40
2019-05-28T21:51:38.955Z,92.40
2019-05-28T21:54:43.328Z,92.50
2019-05-28T21:57:48.096Z,92.50
2019-05-28T22:00:58.411Z,92.50
2019-05-28T22:04:03.578Z,92.60
2019-05-28T22:07:08.210Z,92.60
2019-05-28T22:10:12.986Z,92.80
2019-05-28T22:13:23.449Z,92.60
2019-05-28T22:16:28.072Z,92.60
2019-05-28T22:19:32.517Z,92.70
2019-05-28T22:22:36.880Z,92.70
2019-05-28T22:25:41.452Z,92.60
2019-05-28T22:28:45.954Z,92.60
2019-05-28T22:31:51.377Z,92.70
2019-05-28T22:34:55.871Z,92.80
2019-05-28T22:38:01.228Z,92.90
2019-05-28T22:41:05.835Z,92.90
2019-05-28T22:44:11.483Z,93.00
2019-05-28T22:47:16.422Z,92.90
2019-05-28T22:50:23.097Z,93.00
2019-05-28T22:53:28.055Z,92.90
2019-05-28T22:56:35.713Z,92.90
2019-05-28T22:59:40.107Z,92.90
2019-05-28T23:02:44.517Z,93.00
2019-05-28T23:05:48.909Z,93.10
2019-05-28T23:08:53.286Z,93.00
2019-05-28T23:11:57.659Z,93.00
2019-05-28T23:15:02.054Z,93.10
2019-05-28T23:18:07.365Z,93.10
2019-05-28T23:21:12.354Z,93.20
2019-05-28T23:24:16.714Z,93.20
2019-05-28T23:27:21.109Z,93.30
2019-05-28T23:30:25.809Z,93.70
2019-05-28T23:33:30.342Z,93.40
2019-05-28T23:36:34.671Z,93.30
2019-05-28T23:39:39.039Z,93.40
2019-05-28T23:42:43.327Z,93.50
2019-05-28T23:45:47.714Z,93.50
2019-05-28T23:48:52.095Z,93.50
2019-05-28T23:51:56.496Z,93.50
2019-05-28T23:55:00.768Z,93.60
2019-05-28T23:58:05.786Z,93.60
